Time;durP1;ratioP1;P1;durP2;ratioP2;P2;SDS_P1;SDS_P2;PMS_P1;PMS_P2;Temp;Humidity;BMP_temperature;BMP_pressure;BME280_temperature;BME280_humidity;BME280_pressure;Samples;Min_cycle;Max_cycle;Signal;HPM_P1;HPM_P2
2022/04/19 00:00:45;;;;;;;37.60;20.48;;;12.60;99.90;;;;;;5072373;28;20163;-79
2022/04/19 00:03:12;;;;;;;37.78;19.95;;;12.60;99.90;;;;;;5072428;28;20194;-79
2022/04/19 00:05:38;;;;;;;38.15;19.98;;;12.50;99.90;;;;;;5072418;28;20194;-79
2022/04/19 00:08:05;;;;;;;33.33;19.55;;;12.50;99.90;;;;;;5070820;28;20162;-80
2022/04/19 00:10:31;;;;;;;39.47;19.75;;;12.50;99.90;;;;;;5072493;28;20878;-82
2022/04/19 00:13:02;;;;;;;38.97;21.27;;;12.30;99.90;;;;;;5072137;28;20174;-81
2022/04/19 00:15:30;;;;;;;39.88;20.83;;;12.30;99.90;;;;;;5072271;28;20218;-82
2022/04/19 00:17:56;;;;;;;34.00;19.30;;;12.20;99.90;;;;;;5072418;28;20158;-83
2022/04/19 00:20:24;;;;;;;37.20;20.63;;;12.30;99.90;;;;;;5072093;28;20674;-79
2022/04/19 00:22:49;;;;;;;33.92;20.52;;;12.20;99.90;;;;;;5072498;28;20166;-81
2022/04/19 00:25:16;;;;;;;33.08;20.00;;;12.30;99.90;;;;;;5072230;28;20190;-79
2022/04/19 00:27:41;;;;;;;40.85;19.92;;;12.20;99.90;;;;;;5072376;28;20175;-83
2022/04/19 00:30:07;;;;;;;33.00;18.80;;;12.00;99.90;;;;;;5072057;28;20171;-78
2022/04/19 00:32:34;;;;;;;31.20;19.80;;;12.00;99.90;;;;;;5072915;28;20159;-81
2022/04/19 00:35:00;;;;;;;38.78;21.25;;;12.00;99.90;;;;;;5071660;28;20724;-79
2022/04/19 00:37:26;;;;;;;40.22;19.27;;;12.00;99.90;;;;;;5071915;28;20212;-83
2022/04/19 00:39:53;;;;;;;33.67;19.88;;;12.00;99.90;;;;;;5072218;28;20228;-80
2022/04/19 00:42:18;;;;;;;31.23;19.40;;;12.10;99.90;;;;;;5071876;28;20674;-81
2022/04/19 00:44:44;;;;;;;40.53;20.52;;;12.00;99.90;;;;;;5071880;28;20274;-83
2022/04/19 00:47:10;;;;;;;42.50;21.05;;;12.10;99.90;;;;;;5074304;28;20189;-79
2022/04/19 00:49:44;;;;;;;35.22;20.27;;;12.10;99.90;;;;;;5075349;28;20159;-79
2022/04/19 00:52:10;;;;;;;31.92;19.42;;;12.20;99.90;;;;;;5075678;28;20220;-81
2022/04/19 00:54:36;;;;;;;41.35;21.67;;;12.10;99.90;;;;;;5075279;28;20273;-80
2022/04/19 00:57:03;;;;;;;38.22;21.48;;;12.00;99.90;;;;;;5074020;28;20228;-79
2022/04/19 00:59:29;;;;;;;34.00;21.45;;;12.00;99.90;;;;;;5075443;28;20166;-83
2022/04/19 01:01:55;;;;;;;36.78;21.58;;;12.20;99.90;;;;;;5075603;28;20224;-80
2022/04/19 01:04:21;;;;;;;37.53;22.02;;;12.20;99.90;;;;;;5075368;28;20182;-82
2022/04/19 01:06:46;;;;;;;36.92;21.58;;;12.20;99.90;;;;;;5075052;28;20173;-81
2022/04/19 01:09:12;;;;;;;33.88;20.85;;;12.30;99.90;;;;;;5075206;28;20585;-81
2022/04/19 01:14:24;;;;;;;37.30;23.00;;;12.40;99.90;;;;;;5074731;28;20231;-81
2022/04/19 01:16:50;;;;;;;39.20;22.23;;;12.20;99.90;;;;;;5074990;28;20224;-81
2022/04/19 01:19:16;;;;;;;33.88;22.40;;;12.30;99.90;;;;;;5075378;28;20174;-79
2022/04/19 01:21:49;;;;;;;40.80;22.50;;;12.30;99.90;;;;;;5073816;28;20528;-79
2022/04/19 01:24:16;;;;;;;38.85;22.65;;;12.00;99.90;;;;;;5074805;28;20555;-81
2022/04/19 01:26:42;;;;;;;39.40;22.67;;;12.00;99.90;;;;;;5074883;28;20395;-80
2022/04/19 01:29:09;;;;;;;39.92;23.58;;;11.80;99.90;;;;;;5073691;28;20174;-80
2022/04/19 01:31:36;;;;;;;35.45;22.80;;;11.80;99.90;;;;;;5074595;28;20165;-82
2022/04/19 01:34:02;;;;;;;37.83;22.88;;;11.90;99.90;;;;;;5074816;28;20198;-80
2022/04/19 01:36:28;;;;;;;44.30;21.27;;;11.90;99.90;;;;;;5073831;28;20212;-80
2022/04/19 01:38:53;;;;;;;40.40;22.48;;;11.90;99.90;;;;;;5074678;28;20162;-78
2022/04/19 01:41:19;;;;;;;40.90;22.45;;;12.00;99.90;;;;;;5074882;28;20173;-78
2022/04/19 01:43:44;;;;;;;37.47;24.23;;;12.10;99.90;;;;;;5074291;28;20183;-79
2022/04/19 01:46:11;;;;;;;39.80;23.65;;;12.10;99.90;;;;;;5073497;28;20606;-83
2022/04/19 01:48:36;;;;;;;36.78;22.42;;;12.10;99.90;;;;;;5074833;28;20174;-78
2022/04/19 01:51:02;;;;;;;49.13;24.75;;;12.00;99.90;;;;;;5073454;28;20684;-79
2022/04/19 01:53:29;;;;;;;42.63;23.83;;;12.10;99.90;;;;;;5074472;28;20185;-78
2022/04/19 01:55:55;;;;;;;41.33;22.75;;;12.00;99.90;;;;;;5073867;28;20206;-79
2022/04/19 01:58:21;;;;;;;49.40;24.08;;;11.90;99.90;;;;;;5073465;28;20213;-80
2022/04/19 02:00:46;;;;;;;40.40;23.30;;;11.90;99.90;;;;;;5074447;28;20170;-83
2022/04/19 02:03:12;;;;;;;39.58;22.88;;;12.00;99.90;;;;;;5074114;28;20176;-80
2022/04/19 02:05:37;;;;;;;39.13;22.75;;;11.80;99.90;;;;;;5074093;28;20163;-79
2022/04/19 02:08:03;;;;;;;42.25;23.73;;;11.70;99.90;;;;;;5073931;28;20231;-81
2022/04/19 02:10:29;;;;;;;38.78;23.80;;;11.90;99.90;;;;;;5074018;28;20260;-83
2022/04/19 02:12:54;;;;;;;52.17;25.88;;;11.70;99.90;;;;;;5074011;28;20269;-81
2022/04/19 02:15:20;;;;;;;43.72;25.20;;;11.70;99.90;;;;;;5073721;28;20590;-81
2022/04/19 02:17:48;;;;;;;43.92;25.17;;;11.70;99.90;;;;;;5073827;28;20251;-80
2022/04/19 02:20:16;;;;;;;43.65;25.48;;;11.80;99.90;;;;;;5073657;28;20162;-82
2022/04/19 02:22:42;;;;;;;49.58;24.90;;;11.60;99.90;;;;;;5073486;28;20257;-83
2022/04/19 02:25:11;;;;;;;47.53;25.90;;;11.60;99.90;;;;;;5073504;28;20182;-80
2022/04/19 02:27:37;;;;;;;50.75;26.73;;;11.50;99.90;;;;;;5073469;28;20170;-79
2022/04/19 02:30:05;;;;;;;49.22;26.20;;;11.40;99.90;;;;;;5073354;28;20193;-78
2022/04/19 02:32:33;;;;;;;41.00;24.88;;;11.50;99.90;;;;;;5073634;28;20189;-78
2022/04/19 02:35:00;;;;;;;44.78;26.52;;;11.50;99.90;;;;;;5072885;28;20677;-78
2022/04/19 02:37:26;;;;;;;42.88;25.50;;;11.40;99.90;;;;;;5073439;28;20174;-81
2022/04/19 02:39:52;;;;;;;47.75;25.05;;;11.40;99.90;;;;;;5073377;28;20162;-77
2022/04/19 02:42:17;;;;;;;51.08;26.13;;;11.30;99.90;;;;;;5073436;28;20232;-81
2022/04/19 02:44:43;;;;;;;45.08;25.80;;;11.40;99.90;;;;;;5073274;28;20221;-79
2022/04/19 02:47:09;;;;;;;39.85;24.63;;;11.50;99.90;;;;;;5073419;28;20550;-83
2022/04/19 02:49:36;;;;;;;44.92;25.13;;;11.30;99.90;;;;;;5073009;28;20174;-81
2022/04/19 02:52:03;;;;;;;41.40;24.65;;;11.20;99.90;;;;;;5073097;28;20194;-81
2022/04/19 02:54:28;;;;;;;47.35;26.15;;;11.20;99.90;;;;;;5073489;28;20324;-83
2022/04/19 02:56:54;;;;;;;49.22;26.80;;;11.20;99.90;;;;;;5073200;28;20654;-80
2022/04/19 02:59:20;;;;;;;43.83;25.67;;;11.30;99.90;;;;;;5072901;28;20163;-78
2022/04/19 03:01:45;;;;;;;40.35;26.08;;;11.30;99.90;;;;;;5073024;28;20173;-82
2022/04/19 03:04:11;;;;;;;42.72;25.92;;;11.30;99.90;;;;;;5071904;28;20548;-78
2022/04/19 03:06:36;;;;;;;43.17;25.45;;;11.30;99.90;;;;;;5071592;28;20228;-79
2022/04/19 03:09:02;;;;;;;47.40;27.20;;;11.20;99.90;;;;;;5072205;28;20163;-79
2022/04/19 03:11:28;;;;;;;50.90;25.73;;;11.20;99.90;;;;;;5072689;28;20182;-80
2022/04/19 03:13:55;;;;;;;47.92;25.90;;;11.10;99.90;;;;;;5072164;28;20204;-80
2022/04/19 03:16:20;;;;;;;40.05;26.02;;;11.10;99.90;;;;;;5071294;28;20237;-83
2022/04/19 03:18:46;;;;;;;46.38;26.25;;;11.20;99.90;;;;;;5071177;28;20210;-79
2022/04/19 03:21:12;;;;;;;42.72;26.13;;;11.10;99.90;;;;;;5072372;28;20170;-77
2022/04/19 03:29:24;;;;;;;53.38;25.55;;;11.10;99.90;;;;;;5030030;28;20179;-78
2022/04/19 03:31:50;;;;;;;47.03;25.90;;;11.10;99.90;;;;;;5063414;28;20189;-79
2022/04/19 03:34:15;;;;;;;42.47;26.05;;;11.10;99.90;;;;;;5072401;28;20218;-78
2022/04/19 03:36:41;;;;;;;52.35;26.83;;;10.90;99.90;;;;;;5071299;28;20666;-81
2022/04/19 03:39:06;;;;;;;53.65;27.63;;;10.80;99.90;;;;;;5072820;28;20527;-78
2022/04/19 03:41:32;;;;;;;49.95;26.65;;;10.90;99.90;;;;;;5072333;28;20213;-79
2022/04/19 03:43:57;;;;;;;45.00;26.42;;;10.80;99.90;;;;;;5071236;28;20179;-79
2022/04/19 03:46:23;;;;;;;42.75;26.77;;;10.70;99.90;;;;;;5072626;28;20574;-80
2022/04/19 03:48:49;;;;;;;50.47;27.15;;;10.80;99.90;;;;;;5073524;28;20177;-80
2022/04/19 03:51:14;;;;;;;50.78;29.50;;;10.80;99.90;;;;;;5072641;28;20166;-79
2022/04/19 03:53:40;;;;;;;49.03;27.58;;;10.80;99.90;;;;;;5072494;28;20214;-81
2022/04/19 03:56:06;;;;;;;51.72;27.70;;;10.80;99.90;;;;;;5072067;28;20268;-81
2022/04/19 03:58:32;;;;;;;47.58;27.63;;;11.00;99.90;;;;;;5072277;28;20171;-81
2022/04/19 04:00:59;;;;;;;55.13;29.17;;;11.10;99.90;;;;;;5071208;28;20292;-80
2022/04/19 04:03:24;;;;;;;49.72;27.27;;;11.00;99.90;;;;;;5072044;28;20190;-79
2022/04/19 04:05:50;;;;;;;50.45;27.15;;;10.90;99.90;;;;;;5072036;28;20163;-81
2022/04/19 04:08:16;;;;;;;52.17;27.95;;;10.90;99.90;;;;;;5072121;28;20273;-80
2022/04/19 04:10:42;;;;;;;50.60;27.92;;;11.00;99.90;;;;;;5071984;28;20166;-78
2022/04/19 04:13:07;;;;;;;48.85;26.85;;;11.00;99.90;;;;;;5071836;28;20638;-82
2022/04/19 04:15:33;;;;;;;54.00;28.30;;;11.10;99.90;;;;;;5071973;28;20206;-80
2022/04/19 04:17:59;;;;;;;49.05;29.27;;;11.10;99.90;;;;;;5072311;28;20528;-81
2022/04/19 04:20:25;;;;;;;60.47;28.92;;;10.80;99.90;;;;;;5073221;28;20201;-79
2022/04/19 04:22:50;;;;;;;49.22;28.17;;;10.80;99.90;;;;;;5075864;28;20167;-78
2022/04/19 04:25:16;;;;;;;56.70;30.40;;;10.70;99.90;;;;;;5075705;28;20553;-79
2022/04/19 04:27:41;;;;;;;53.15;28.67;;;10.70;99.90;;;;;;5074407;28;20177;-81
2022/04/19 04:30:07;;;;;;;59.80;30.05;;;10.60;99.90;;;;;;5074438;28;20228;-80
2022/04/19 04:32:33;;;;;;;47.85;28.65;;;10.70;99.90;;;;;;5075726;28;20202;-81
2022/04/19 04:34:59;;;;;;;58.63;30.45;;;10.60;99.90;;;;;;5075662;28;20221;-81
2022/04/19 04:37:25;;;;;;;47.67;29.00;;;10.70;99.90;;;;;;5075464;28;20198;-80
2022/04/19 04:39:51;;;;;;;47.25;29.42;;;10.70;99.90;;;;;;5075530;28;20162;-79
2022/04/19 04:42:16;;;;;;;53.30;30.50;;;10.60;99.90;;;;;;5075588;28;20196;-80
2022/04/19 04:44:42;;;;;;;55.40;32.15;;;10.70;99.90;;;;;;5075051;28;20281;-79
2022/04/19 04:49:52;;;;;;;62.75;31.80;;;10.90;99.90;;;;;;5076022;28;20262;-80
2022/04/19 04:52:21;;;;;;;56.28;30.27;;;10.90;99.90;;;;;;5075677;28;20598;-78
2022/04/19 04:54:46;;;;;;;60.10;33.17;;;10.80;99.90;;;;;;5075508;28;20248;-79
2022/04/19 04:57:12;;;;;;;64.53;31.98;;;10.80;99.90;;;;;;5075471;28;20206;-81
2022/04/19 04:59:38;;;;;;;56.38;31.73;;;11.00;99.90;;;;;;5075313;28;20531;-78
2022/04/19 05:02:04;;;;;;;52.70;30.00;;;11.10;99.90;;;;;;5075277;28;20171;-80
2022/04/19 05:04:32;;;;;;;52.97;30.85;;;10.90;99.90;;;;;;5074111;28;20182;-80
2022/04/19 05:06:58;;;;;;;53.35;30.60;;;11.00;99.90;;;;;;5075330;28;20166;-82
2022/04/19 05:09:24;;;;;;;55.03;31.30;;;11.10;99.90;;;;;;5075044;28;20167;-81
2022/04/19 05:11:52;;;;;;;61.60;30.20;;;11.20;99.90;;;;;;5075198;28;20634;-80
2022/04/19 05:14:18;;;;;;;48.35;29.30;;;11.20;99.90;;;;;;5074689;28;20190;-78
2022/04/19 05:16:44;;;;;;;48.35;28.70;;;11.10;99.90;;;;;;5075253;28;20354;-82
2022/04/19 05:19:10;;;;;;;53.90;27.25;;;11.30;99.90;;;;;;5075054;28;20639;-80
2022/04/19 05:21:38;;;;;;;50.45;28.98;;;11.40;99.90;;;;;;5075135;28;20641;-84
2022/04/19 05:24:12;;;;;;;51.92;28.52;;;11.30;99.90;;;;;;5075402;28;20190;-79
2022/04/19 05:26:38;;;;;;;59.60;30.23;;;11.30;99.90;;;;;;5074686;28;20272;-79
2022/04/19 05:29:04;;;;;;;55.90;28.85;;;11.50;99.90;;;;;;5074531;28;20198;-78
2022/04/19 05:31:30;;;;;;;50.25;29.23;;;11.50;99.90;;;;;;5072900;28;20600;-78
2022/04/19 05:33:56;;;;;;;46.67;28.73;;;11.50;99.90;;;;;;5074699;28;20193;-80
2022/04/19 05:36:22;;;;;;;62.38;28.40;;;11.50;99.90;;;;;;5074849;28;20255;-80
2022/04/19 05:38:52;;;;;;;70.93;29.90;;;11.60;99.90;;;;;;5075891;28;20159;-81
2022/04/19 05:41:19;;;;;;;50.67;29.58;;;11.80;99.90;;;;;;5082885;28;20166;-78
2022/04/19 05:43:46;;;;;;;55.17;31.45;;;12.00;99.90;;;;;;5085549;28;20182;-78
2022/04/19 05:46:12;;;;;;;75.30;31.38;;;12.20;99.90;;;;;;5075046;28;20162;-82
2022/04/19 05:48:38;;;;;;;43.75;29.15;;;12.20;99.90;;;;;;5072701;28;20501;-79
2022/04/19 05:51:06;;;;;;;50.08;30.75;;;12.20;99.90;;;;;;5074020;28;20602;-82
2022/04/19 05:53:32;;;;;;;53.80;31.23;;;12.20;99.90;;;;;;5074163;28;20541;-78
2022/04/19 05:55:57;;;;;;;57.15;31.20;;;12.50;99.90;;;;;;5073825;28;20195;-77
2022/04/19 05:58:23;;;;;;;52.38;32.58;;;12.60;99.90;;;;;;5069956;28;20935;-77
2022/04/19 06:00:48;;;;;;;59.35;30.00;;;12.70;99.90;;;;;;5093296;28;20227;-77
2022/04/19 06:05:58;;;;;;;48.10;30.08;;;12.80;99.90;;;;;;5089381;28;20264;-81
2022/04/19 06:08:23;;;;;;;47.83;31.20;;;12.70;99.90;;;;;;5085175;28;20182;-79
2022/04/19 06:10:50;;;;;;;48.08;30.33;;;12.60;99.90;;;;;;5093038;28;20574;-80
2022/04/19 06:13:16;;;;;;;55.72;30.02;;;12.50;99.90;;;;;;5093623;28;20181;-80
2022/04/19 06:15:42;;;;;;;49.58;29.48;;;12.60;99.90;;;;;;5093420;28;20723;-80
2022/04/19 06:18:07;;;;;;;56.92;30.75;;;12.50;99.90;;;;;;5089902;28;20175;-79
2022/04/19 06:20:34;;;;;;;52.92;30.88;;;12.60;99.90;;;;;;5072902;28;20194;-81
2022/04/19 06:22:59;;;;;;;50.85;30.48;;;12.80;99.90;;;;;;5071378;28;20265;-77
2022/04/19 06:25:25;;;;;;;47.53;28.48;;;12.90;99.90;;;;;;5072925;28;20206;-80
2022/04/19 06:27:56;;;;;;;47.95;30.95;;;13.00;99.90;;;;;;5085461;28;20162;-77
2022/04/19 06:30:21;;;;;;;60.55;29.70;;;13.20;99.90;;;;;;5070234;28;20174;-80
2022/04/19 06:32:47;;;;;;;47.78;29.60;;;13.20;99.90;;;;;;5076560;28;20248;-78
2022/04/19 06:35:13;;;;;;;52.33;29.52;;;13.40;99.90;;;;;;5092880;28;20197;-77
2022/04/19 06:37:39;;;;;;;47.70;28.90;;;13.40;99.90;;;;;;5093560;28;20251;-80
2022/04/19 06:40:06;;;;;;;47.58;27.25;;;13.50;99.90;;;;;;5093611;28;20198;-78
2022/04/19 06:42:32;;;;;;;53.00;29.30;;;13.70;99.90;;;;;;5076452;28;20175;-87
2022/04/19 06:44:58;;;;;;;40.25;27.40;;;13.90;99.90;;;;;;5072664;28;20520;-83
2022/04/19 06:47:26;;;;;;;45.17;28.88;;;13.90;99.90;;;;;;5072826;28;20174;-78
2022/04/19 06:49:58;;;;;;;50.22;28.58;;;13.90;99.90;;;;;;5072428;28;20198;-77
2022/04/19 06:52:25;;;;;;;47.88;30.00;;;13.80;99.90;;;;;;5020019;27;20310;-80
2022/04/19 06:54:51;;;;;;;47.45;28.38;;;13.90;99.90;;;;;;5012963;28;20198;-79
2022/04/19 06:57:16;;;;;;;47.95;29.42;;;14.10;99.90;;;;;;5011820;28;20200;-82
2022/04/19 06:59:42;;;;;;;45.67;28.15;;;14.40;99.90;;;;;;5013334;28;20197;-82
2022/04/19 07:02:07;;;;;;;52.40;28.70;;;14.70;99.90;;;;;;5013031;28;20176;-78
2022/04/19 07:04:33;;;;;;;49.67;27.42;;;15.00;99.90;;;;;;5013262;28;20271;-81
2022/04/19 07:06:59;;;;;;;45.55;26.05;;;15.20;99.90;;;;;;5013305;28;20161;-80
2022/04/19 07:09:25;;;;;;;37.95;25.63;;;15.20;99.90;;;;;;5013374;28;20251;-80
2022/04/19 07:11:51;;;;;;;40.45;24.42;;;15.20;99.90;;;;;;5012845;28;20173;-85
2022/04/19 07:14:17;;;;;;;40.15;23.58;;;15.30;99.90;;;;;;5013351;28;20201;-85
2022/04/19 07:16:42;;;;;;;39.53;23.42;;;15.30;99.90;;;;;;5013106;28;20208;-84
2022/04/19 07:19:08;;;;;;;34.42;23.45;;;15.20;99.90;;;;;;5016381;28;20578;-78
2022/04/19 07:27:02;;;;;;;29.75;22.13;;;15.20;99.90;;;;;;5013152;28;20263;-87
2022/04/19 07:29:27;;;;;;;33.92;23.00;;;15.40;99.90;;;;;;5012818;28;20164;-86
2022/04/19 07:31:53;;;;;;;38.78;23.30;;;15.50;99.90;;;;;;5016266;28;20175;-90
2022/04/19 07:34:19;;;;;;;37.60;23.00;;;15.80;99.90;;;;;;4995647;28;20528;-81
2022/04/19 07:36:45;;;;;;;48.20;25.55;;;16.10;99.90;;;;;;4992392;28;20211;-78
2022/04/19 07:39:12;;;;;;;37.75;23.02;;;16.40;99.90;;;;;;4992976;28;20176;-79
2022/04/19 07:41:39;;;;;;;42.05;20.73;;;16.60;99.90;;;;;;4993259;28;20170;-85
2022/04/19 07:44:11;;;;;;;33.92;22.15;;;16.90;99.90;;;;;;4992946;28;20656;-81
2022/04/19 07:46:37;;;;;;;34.42;22.10;;;16.80;99.90;;;;;;4992768;28;20161;-82
2022/04/19 07:49:03;;;;;;;48.83;21.05;;;16.80;99.90;;;;;;4991760;28;20231;-81
2022/04/19 07:51:29;;;;;;;37.47;20.95;;;16.90;99.90;;;;;;4992972;28;20200;-81
2022/04/19 07:53:55;;;;;;;36.13;21.83;;;16.90;99.90;;;;;;4992237;28;20197;-82
2022/04/19 07:56:22;;;;;;;46.55;22.00;;;17.20;99.90;;;;;;4995024;28;20211;-83
2022/04/19 07:58:48;;;;;;;34.80;21.50;;;17.40;99.90;;;;;;5012081;28;20179;-79
2022/04/19 08:01:14;;;;;;;30.15;21.25;;;17.60;99.90;;;;;;4997814;28;20180;-78
2022/04/19 08:03:40;;;;;;;37.28;21.73;;;17.70;99.90;;;;;;4997374;28;20283;-78
2022/04/19 08:06:06;;;;;;;49.80;20.75;;;17.80;99.90;;;;;;4997184;28;20248;-79
2022/04/19 08:08:32;;;;;;;40.72;21.58;;;18.00;99.90;;;;;;4996470;28;20657;-82
2022/04/19 08:10:58;;;;;;;29.85;19.92;;;18.10;99.90;;;;;;4998200;28;20181;-83
2022/04/19 08:13:24;;;;;;;37.30;21.25;;;17.80;99.90;;;;;;4995654;28;20214;-81
2022/04/19 08:15:50;;;;;;;34.13;20.98;;;17.80;99.90;;;;;;4996809;28;20197;-79
2022/04/19 08:18:18;;;;;;;37.75;22.30;;;18.10;99.90;;;;;;4996781;28;20176;-82
2022/04/19 08:20:45;;;;;;;42.53;19.52;;;18.30;99.90;;;;;;4996631;28;20169;-81
2022/04/19 08:23:11;;;;;;;42.33;17.73;;;18.60;99.90;;;;;;4996180;28;20203;-81
2022/04/19 08:25:38;;;;;;;31.65;19.33;;;18.20;99.90;;;;;;4996920;28;20192;-78
2022/04/19 08:28:05;;;;;;;34.42;18.92;;;18.40;99.90;;;;;;4996580;28;20165;-78
2022/04/19 08:30:31;;;;;;;42.33;20.83;;;18.20;99.90;;;;;;4996292;28;20668;-78
2022/04/19 08:32:57;;;;;;;31.02;19.02;;;18.30;99.90;;;;;;4996608;28;20646;-79
2022/04/19 08:35:23;;;;;;;34.00;18.95;;;18.40;99.90;;;;;;4996395;28;20204;-88
2022/04/19 08:37:49;;;;;;;30.45;17.80;;;18.80;99.90;;;;;;4996466;28;20158;-80
2022/04/19 08:40:16;;;;;;;29.52;18.17;;;18.80;99.90;;;;;;4999807;28;20270;-80
2022/04/19 08:42:43;;;;;;;29.90;18.08;;;18.80;99.90;;;;;;5014026;28;20173;-83
2022/04/19 08:45:15;;;;;;;35.97;17.75;;;18.90;99.90;;;;;;5030771;28;20192;-82
2022/04/19 08:47:45;;;;;;;37.70;17.52;;;19.00;99.90;;;;;;5016076;28;20172;-81
2022/04/19 08:50:17;;;;;;;30.23;16.88;;;19.00;99.90;;;;;;5014654;28;20177;-80
2022/04/19 08:52:44;;;;;;;28.88;17.13;;;18.80;99.90;;;;;;4995810;28;20672;-82
2022/04/19 08:57:55;;;;;;;20.25;15.02;;;18.90;99.90;;;;;;5000647;28;20187;-82
2022/04/19 09:00:23;;;;;;;20.30;12.40;;;18.80;99.90;;;;;;4997921;28;20212;-86
2022/04/19 09:02:58;;;;;;;13.40;10.93;;;18.90;99.90;;;;;;4995723;28;20173;-87
2022/04/19 09:05:26;;;;;;;20.60;10.20;;;18.80;99.90;;;;;;4998193;28;20176;-82
2022/04/19 09:07:54;;;;;;;25.00;11.25;;;18.60;99.90;;;;;;4995088;28;20626;-80
2022/04/19 09:10:32;;;;;;;17.63;10.45;;;18.60;99.90;;;;;;4995471;28;20216;-86
2022/04/19 09:13:09;;;;;;;17.17;8.82;;;18.70;99.90;;;;;;4996270;28;20181;-90
2022/04/19 09:15:42;;;;;;;20.33;8.40;;;18.80;99.10;;;;;;4996419;28;20680;-91
2022/04/19 09:18:33;;;;;;;10.05;7.45;;;18.70;98.90;;;;;;4997787;28;20467;-88
2022/04/19 09:21:00;;;;;;;9.93;8.25;;;18.60;97.80;;;;;;4996291;28;20173;-96
2022/04/19 09:23:29;;;;;;;8.40;7.38;;;18.50;96.70;;;;;;4997340;28;20302;-90
2022/04/19 09:26:04;;;;;;;16.20;7.88;;;18.50;97.30;;;;;;4996956;28;20170;-91
2022/04/19 09:28:31;;;;;;;7.63;6.45;;;18.50;97.40;;;;;;4997984;28;20172;-89
2022/04/19 09:30:59;;;;;;;9.57;6.80;;;18.80;97.30;;;;;;4997083;28;20176;-87
2022/04/19 09:33:27;;;;;;;11.80;6.22;;;18.80;95.90;;;;;;4996560;28;20189;-89
2022/04/19 09:35:55;;;;;;;15.18;7.35;;;18.60;95.50;;;;;;4995382;28;20584;-88
2022/04/19 09:38:36;;;;;;;9.43;6.28;;;18.80;95.60;;;;;;4996556;28;20165;-87
2022/04/19 09:41:02;;;;;;;10.05;5.90;;;18.70;94.90;;;;;;5008794;28;20299;-86
2022/04/19 09:43:28;;;;;;;10.05;5.65;;;18.70;95.20;;;;;;5015436;28;20211;-86
2022/04/19 09:45:56;;;;;;;7.93;6.85;;;18.60;94.80;;;;;;5030807;28;20510;-88
2022/04/19 09:48:34;;;;;;;10.77;6.65;;;18.70;94.30;;;;;;5029867;28;20172;-83
2022/04/19 09:51:04;;;;;;;8.20;6.28;;;18.90;93.90;;;;;;5029164;28;20540;-84
2022/04/19 09:53:48;;;;;;;8.98;6.93;;;19.20;94.00;;;;;;5013887;28;20192;-85
2022/04/19 09:56:21;;;;;;;10.40;6.80;;;19.20;94.20;;;;;;5016254;28;20251;-88
2022/04/19 09:58:49;;;;;;;6.63;5.90;;;19.30;93.90;;;;;;5028785;23;20212;-84
2022/04/19 10:09:33;;;;;;;7.35;6.57;;;19.70;93.30;;;;;;5034603;28;20183;-84
2022/04/19 10:12:00;;;;;;;10.73;6.57;;;19.80;92.60;;;;;;5032972;28;20535;-83
2022/04/19 10:14:28;;;;;;;10.05;6.40;;;19.80;92.60;;;;;;5032655;28;20194;-87
2022/04/19 10:16:55;;;;;;;6.95;6.28;;;19.50;93.20;;;;;;5033140;28;20204;-83
2022/04/19 10:19:21;;;;;;;13.25;5.72;;;19.50;93.60;;;;;;5035213;28;20287;-83
2022/04/19 10:21:48;;;;;;;12.80;6.75;;;19.90;93.20;;;;;;5037381;28;20198;-83
2022/04/19 10:24:15;;;;;;;7.00;5.25;;;19.90;92.20;;;;;;5037256;28;20271;-84
2022/04/19 10:26:47;;;;;;;6.07;4.95;;;20.10;91.40;;;;;;5038098;28;20179;-84
2022/04/19 10:29:33;;;;;;;6.00;5.40;;;19.90;90.50;;;;;;5053405;28;20258;-84
2022/04/19 10:32:16;;;;;;;8.80;5.25;;;19.70;90.40;;;;;;5039331;28;20199;-82
2022/04/19 10:34:45;;;;;;;7.95;4.65;;;19.80;88.50;;;;;;5055304;28;20188;-85
2022/04/19 10:37:24;;;;;;;5.43;4.70;;;19.60;87.50;;;;;;5054183;28;20270;-83
2022/04/19 10:40:12;;;;;;;4.55;4.10;;;19.70;87.50;;;;;;5035105;28;20167;-82
2022/04/19 10:42:40;;;;;;;10.57;5.68;;;19.60;87.90;;;;;;5018117;28;20160;-84
2022/04/19 10:45:15;;;;;;;8.60;6.30;;;19.70;88.30;;;;;;5034191;28;20253;-83
2022/04/19 10:47:58;;;;;;;6.40;5.57;;;20.00;86.80;;;;;;5033944;28;20183;-85
2022/04/19 10:50:51;;;;;;;11.40;5.63;;;19.80;84.80;;;;;;5034930;28;20245;-84
2022/04/19 10:53:17;;;;;;;9.02;5.80;;;19.70;85.90;;;;;;5034774;28;20536;-83
2022/04/19 10:56:02;;;;;;;13.38;5.88;;;19.70;85.50;;;;;;5037014;28;20208;-84
2022/04/19 10:58:42;;;;;;;9.52;5.68;;;19.90;86.10;;;;;;5017558;28;20278;-89
2022/04/19 11:01:30;;;;;;;8.60;4.88;;;20.00;85.10;;;;;;5017483;28;20250;-82
2022/04/19 11:03:56;;;;;;;7.78;5.47;;;20.00;83.20;;;;;;5016415;28;20199;-81
2022/04/19 11:06:48;;;;;;;5.15;4.60;;;20.00;83.90;;;;;;5034307;28;20251;-81
2022/04/19 11:09:24;;;;;;;7.75;5.70;;;20.00;83.00;;;;;;5028969;28;20183;-82
2022/04/19 11:11:54;;;;;;;8.80;5.25;;;20.20;83.50;;;;;;5034533;28;20178;-82
2022/04/19 11:14:20;;;;;;;11.52;6.00;;;20.50;84.50;;;;;;5016672;28;20192;-82
2022/04/19 11:17:19;;;;;;;10.32;5.03;;;20.50;80.60;;;;;;5033542;28;20567;-84
2022/04/19 11:20:09;;;;;;;8.60;6.20;;;20.20;82.40;;;;;;5017901;28;20241;-83
2022/04/19 11:22:46;;;;;;;8.93;6.60;;;20.40;83.30;;;;;;5002713;28;20653;-82
2022/04/19 11:25:12;;;;;;;7.28;6.55;;;20.50;83.60;;;;;;5034115;28;20188;-85
2022/04/19 11:27:53;;;;;;;11.30;6.18;;;20.40;83.10;;;;;;5033810;28;20540;-83
2022/04/19 11:30:26;;;;;;;13.27;6.07;;;20.50;83.30;;;;;;5034114;28;20267;-84
2022/04/19 11:32:54;;;;;;;12.13;5.30;;;20.60;81.70;;;;;;5035262;28;20263;-84
2022/04/19 11:35:20;;;;;;;11.85;6.00;;;20.40;78.70;;;;;;5017777;28;20978;-83
2022/04/19 11:37:47;;;;;;;8.90;5.70;;;20.20;79.10;;;;;;5033889;28;20172;-84
2022/04/19 11:48:48;;;;;;;8.13;5.32;;;20.10;77.80;;;;;;5035606;28;20231;-83
2022/04/19 11:51:16;;;;;;;7.90;5.43;;;20.20;77.20;;;;;;5033473;28;20229;-83
2022/04/19 11:53:45;;;;;;;10.07;5.90;;;20.30;78.90;;;;;;5016928;28;20196;-90
2022/04/19 11:56:11;;;;;;;13.23;5.68;;;20.30;78.20;;;;;;5015725;28;20215;-81
2022/04/19 11:58:41;;;;;;;15.27;6.10;;;20.20;79.00;;;;;;5034376;28;20190;-83
2022/04/19 12:01:09;;;;;;;12.60;6.05;;;20.20;79.70;;;;;;5022347;28;20171;-87
2022/04/19 12:03:37;;;;;;;10.10;6.05;;;20.30;77.30;;;;;;5025234;28;20251;-86
2022/04/19 12:06:08;;;;;;;9.00;5.93;;;20.30;77.80;;;;;;5042370;28;20168;-83
2022/04/19 12:08:40;;;;;;;5.82;5.22;;;20.40;78.20;;;;;;5004142;28;20168;-88
2022/04/19 12:11:17;;;;;;;9.30;6.32;;;20.50;78.30;;;;;;5050811;28;20186;-84
2022/04/19 12:13:44;;;;;;;7.15;5.43;;;20.40;78.70;;;;;;5054465;28;20198;-82
2022/04/19 12:16:34;;;;;;;10.27;6.07;;;20.40;77.80;;;;;;5042625;28;20261;-87
2022/04/19 12:19:12;;;;;;;12.02;6.43;;;20.40;78.10;;;;;;5037840;28;20654;-85
2022/04/19 12:21:41;;;;;;;22.05;6.30;;;20.30;77.90;;;;;;5016687;28;20175;-87
2022/04/19 12:24:08;;;;;;;13.40;6.22;;;20.40;77.20;;;;;;5033596;28;20302;-83
2022/04/19 12:26:35;;;;;;;7.57;6.00;;;20.40;78.20;;;;;;5033212;28;20172;-83
2022/04/19 12:29:13;;;;;;;12.98;6.75;;;20.30;78.50;;;;;;5031732;28;20198;-82
2022/04/19 12:31:44;;;;;;;7.32;6.20;;;20.40;78.30;;;;;;5030622;28;20798;-81
2022/04/19 12:34:12;;;;;;;8.90;5.45;;;20.60;78.20;;;;;;5031043;28;20291;-83
2022/04/19 12:36:47;;;;;;;7.97;5.75;;;20.40;78.80;;;;;;5031825;28;20520;-83
2022/04/19 12:39:19;;;;;;;11.98;5.68;;;20.50;77.90;;;;;;5032028;28;20167;-83
2022/04/19 12:41:46;;;;;;;5.60;5.10;;;20.40;77.30;;;;;;5034117;28;20178;-82
2022/04/19 12:44:16;;;;;;;7.72;5.05;;;20.40;78.90;;;;;;5036042;28;20188;-82
2022/04/19 12:46:43;;;;;;;14.35;4.97;;;20.50;78.30;;;;;;5036776;28;20168;-81
2022/04/19 12:49:27;;;;;;;11.52;5.70;;;20.50;78.80;;;;;;5053420;28;20223;-81
2022/04/19 12:52:08;;;;;;;6.03;5.25;;;20.50;78.80;;;;;;5059550;28;20159;-80
2022/04/19 12:54:37;;;;;;;6.93;5.15;;;20.40;78.80;;;;;;5058990;28;20194;-82
2022/04/19 12:59:55;;;;;;;7.38;4.93;;;20.40;80.00;;;;;;5042405;28;20555;-83
2022/04/19 13:02:21;;;;;;;6.53;4.30;;;20.40;78.70;;;;;;5024561;28;20163;-82
2022/04/19 13:04:48;;;;;;;17.85;5.00;;;20.60;79.00;;;;;;5036773;28;20230;-81
2022/04/19 13:12:52;;;;;;;5.50;4.70;;;20.70;79.50;;;;;;5022099;28;20188;-83
2022/04/19 13:15:17;;;;;;;5.70;5.03;;;20.90;79.40;;;;;;5035171;28;20206;-82
2022/04/19 13:17:44;;;;;;;11.50;4.30;;;20.90;79.20;;;;;;5037157;28;20251;-82
2022/04/19 13:20:11;;;;;;;5.88;4.32;;;20.70;79.20;;;;;;5036861;28;20164;-83
2022/04/19 13:22:36;;;;;;;5.60;4.97;;;20.60;80.10;;;;;;5035496;28;20168;-83